Time;durP1;ratioP1;P1;durP2;ratioP2;P2;SDS_P1;SDS_P2;PMS_P1;PMS_P2;Temp;Humidity;BMP_temperature;BMP_pressure;BME280_temperature;BME280_humidity;BME280_pressure;Samples;Min_cycle;Max_cycle;Signal;HPM_P1;HPM_P2
2022/08/31 16:12:18;;;;;;;;;;;25.60;45.90;;;;;;1595875;71;1309;-67
2022/08/31 16:14:20;;;;;;;;;;;25.60;45.70;;;;;;1596424;73;1127;-70
2022/08/31 16:16:22;;;;;;;;;;;25.50;45.70;;;;;;1600981;73;840;-65
2022/08/31 16:18:24;;;;;;;;;;;25.50;45.70;;;;;;1593482;73;739;-66
2022/08/31 16:20:27;;;;;;;;;;;25.60;45.80;;;;;;1598285;73;1193;-64
2022/08/31 16:22:29;;;;;;;;;;;25.60;45.80;;;;;;1574977;74;1900;-68
2022/08/31 16:24:50;;;;;;;;;;;25.50;45.80;;;;;;1575135;74;759;-67
2022/08/31 16:26:56;;;;;;;;;;;25.60;46.00;;;;;;1575797;74;671;-66
2022/08/31 16:28:57;;;;;;;;;;;25.60;45.90;;;;;;1585302;74;1581;-66
2022/08/31 16:30:58;;;;;;;;;;;25.60;45.90;;;;;;1571120;74;657;-65
2022/08/31 16:33:00;;;;;;;;;;;25.50;45.90;;;;;;1564255;74;1040;-65
2022/08/31 16:35:04;;;;;;;;;;;25.60;45.90;;;;;;1577047;73;1224;-65
2022/08/31 16:37:06;;;;;;;;;;;25.60;45.90;;;;;;1601070;73;740;-65
2022/08/31 16:39:08;;;;;;;;;;;25.50;45.90;;;;;;1589813;73;783;-67
2022/08/31 16:41:10;;;;;;;;;;;25.50;45.90;;;;;;1606747;73;660;-67
2022/08/31 16:43:12;;;;;;;;;;;25.50;46.00;;;;;;1599916;73;1938;-67
2022/08/31 16:45:14;;;;;;;;;;;25.60;46.00;;;;;;1600444;73;1479;-67
2022/08/31 16:47:16;;;;;;;;;;;25.60;46.00;;;;;;1590118;73;663;-67
2022/08/31 16:49:34;;;;;;;;;;;25.50;46.00;;;;;;1588169;73;790;-67
2022/08/31 16:51:36;;;;;;;;;;;25.50;46.00;;;;;;1593106;73;819;-67
2022/08/31 16:53:39;;;;;;;;;;;25.50;46.00;;;;;;1591532;73;669;-67
2022/08/31 16:55:41;;;;;;;;;;;25.50;46.10;;;;;;1604504;73;1162;-67
2022/08/31 16:57:43;;;;;;;;;;;25.50;46.10;;;;;;1603159;73;767;-67
2022/08/31 16:59:45;;;;;;;;;;;25.50;46.20;;;;;;1596783;73;730;-67
2022/08/31 17:01:47;;;;;;;;;;;25.50;46.20;;;;;;1599511;73;731;-67
2022/08/31 17:03:50;;;;;;;;;;;25.60;46.20;;;;;;1589968;73;1930;-66
2022/08/31 17:05:52;;;;;;;;;;;25.50;46.10;;;;;;1599627;73;1154;-70
2022/08/31 17:07:55;;;;;;;;;;;25.60;46.20;;;;;;1596592;73;755;-70
2022/08/31 17:10:02;;;;;;;;;;;25.60;46.20;;;;;;1606731;73;729;-70
2022/08/31 17:12:01;;;;;;;;;;;25.50;46.40;;;;;;1593254;73;1701;-70
2022/08/31 17:14:04;;;;;;;;;;;25.70;46.30;;;;;;1598530;73;761;-70
2022/08/31 17:16:07;;;;;;;;;;;25.60;46.30;;;;;;1599985;73;1212;-71
2022/08/31 17:18:09;;;;;;;;;;;25.60;46.40;;;;;;1598963;73;788;-71
2022/08/31 17:20:11;;;;;;;;;;;25.60;46.40;;;;;;1596001;73;720;-71
2022/08/31 17:22:14;;;;;;;;;;;25.50;46.40;;;;;;1609071;73;766;-71
2022/08/31 17:24:20;;;;;;;;;;;25.50;46.40;;;;;;1601412;73;1903;-71
2022/08/31 17:26:21;;;;;;;;;;;25.50;46.40;;;;;;1599043;73;1617;-71
2022/08/31 17:28:24;;;;;;;;;;;25.50;46.40;;;;;;1597466;73;765;-71
2022/08/31 17:30:26;;;;;;;;;;;25.50;46.40;;;;;;1592634;73;801;-71
2022/08/31 17:32:28;;;;;;;;;;;25.50;46.50;;;;;;1592479;73;738;-70
2022/08/31 17:34:33;;;;;;;;;;;25.50;46.50;;;;;;1602097;73;848;-69
2022/08/31 17:36:34;;;;;;;;;;;25.50;46.50;;;;;;1592803;73;976;-71
2022/08/31 17:38:36;;;;;;;;;;;25.60;46.50;;;;;;1600822;73;790;-68
2022/08/31 17:40:38;;;;;;;;;;;25.60;46.50;;;;;;1604269;73;797;-70
2022/08/31 17:42:40;;;;;;;;;;;25.60;46.30;;;;;;1597251;73;746;-69
2022/08/31 17:44:46;;;;;;;;;;;25.70;46.30;;;;;;1594393;73;1930;-69
2022/08/31 17:46:46;;;;;;;;;;;25.60;46.30;;;;;;1606792;72;1457;-69
2022/08/31 17:48:50;;;;;;;;;;;25.60;46.40;;;;;;1592027;73;737;-69
2022/08/31 17:50:51;;;;;;;;;;;25.60;46.50;;;;;;1599758;73;713;-69
2022/08/31 17:52:53;;;;;;;;;;;25.60;46.50;;;;;;1602240;73;771;-69
2022/08/31 17:54:59;;;;;;;;;;;25.60;46.50;;;;;;1602420;73;1170;-70
2022/08/31 17:57:00;;;;;;;;;;;25.50;46.50;;;;;;1587869;73;1235;-69
2022/08/31 17:59:01;;;;;;;;;;;25.50;46.50;;;;;;1599412;72;706;-69
2022/08/31 18:01:04;;;;;;;;;;;25.50;46.50;;;;;;1588567;73;785;-70
2022/08/31 18:03:06;;;;;;;;;;;25.50;46.50;;;;;;1596322;73;1926;-71
2022/08/31 18:05:09;;;;;;;;;;;25.50;46.50;;;;;;1585424;73;1140;-70
2022/08/31 18:07:11;;;;;;;;;;;25.60;46.50;;;;;;1612278;73;791;-70
2022/08/31 18:09:13;;;;;;;;;;;25.50;46.50;;;;;;1595580;73;835;-70
2022/08/31 18:11:15;;;;;;;;;;;25.50;46.50;;;;;;1600936;73;781;-71
2022/08/31 18:13:18;;;;;;;;;;;25.50;46.60;;;;;;1593601;73;809;-70
2022/08/31 18:15:20;;;;;;;;;;;25.50;46.60;;;;;;1587693;73;1529;-70
2022/08/31 18:17:22;;;;;;;;;;;25.50;46.60;;;;;;1596153;73;736;-70
2022/08/31 18:19:24;;;;;;;;;;;25.50;46.60;;;;;;1592926;73;1285;-70
2022/08/31 18:21:26;;;;;;;;;;;25.50;46.60;;;;;;1603884;73;917;-70
2022/08/31 18:23:27;;;;;;;;;;;25.50;46.70;;;;;;1604207;73;1923;-71
2022/08/31 18:25:31;;;;;;;;;;;25.50;46.60;;;;;;1595617;73;1099;-70
2022/08/31 18:27:33;;;;;;;;;;;25.50;46.70;;;;;;1602032;73;804;-71
2022/08/31 18:29:35;;;;;;;;;;;25.50;46.70;;;;;;1601352;72;782;-70
2022/08/31 18:31:39;;;;;;;;;;;25.50;46.60;;;;;;1609523;73;778;-70
2022/08/31 18:33:41;;;;;;;;;;;25.50;46.70;;;;;;1604555;73;1057;-70
2022/08/31 18:35:49;;;;;;;;;;;25.50;46.70;;;;;;1603700;73;1197;-69
2022/08/31 18:37:51;;;;;;;;;;;25.50;46.70;;;;;;1602729;73;747;-69
2022/08/31 18:46:53;;;;;;;;;;;25.40;46.80;;;;;;1605972;73;1651;-70
2022/08/31 18:48:55;;;;;;;;;;;25.50;46.80;;;;;;1599624;73;755;-69
2022/08/31 18:50:57;;;;;;;;;;;25.40;46.80;;;;;;1607171;73;790;-69
2022/08/31 18:53:00;;;;;;;;;;;25.50;46.80;;;;;;1605062;73;879;-69
2022/08/31 18:55:01;;;;;;;;;;;25.40;46.80;;;;;;1597818;73;1163;-69
2022/08/31 18:57:03;;;;;;;;;;;25.40;46.80;;;;;;1607245;73;697;-68
2022/08/31 18:59:05;;;;;;;;;;;25.50;46.80;;;;;;1593178;73;710;-69
2022/08/31 19:01:08;;;;;;;;;;;25.40;46.80;;;;;;1608135;73;712;-70
2022/08/31 19:03:11;;;;;;;;;;;25.40;46.80;;;;;;1598753;73;686;-69
2022/08/31 19:05:13;;;;;;;;;;;25.40;46.80;;;;;;1604927;73;1906;-69
2022/08/31 19:07:15;;;;;;;;;;;25.40;46.80;;;;;;1602385;73;696;-70
2022/08/31 19:09:17;;;;;;;;;;;25.40;46.70;;;;;;1590181;73;700;-70
2022/08/31 19:11:19;;;;;;;;;;;25.40;46.80;;;;;;1600544;73;1158;-70
2022/08/31 19:13:21;;;;;;;;;;;25.40;46.70;;;;;;1597204;73;736;-69
2022/08/31 19:15:23;;;;;;;;;;;25.40;46.80;;;;;;1599847;73;1149;-70
2022/08/31 19:17:25;;;;;;;;;;;25.30;46.70;;;;;;1596033;73;753;-69
2022/08/31 19:19:27;;;;;;;;;;;25.40;46.70;;;;;;1600596;73;775;-69
2022/08/31 19:21:30;;;;;;;;;;;25.40;46.70;;;;;;1597081;73;720;-69
2022/08/31 19:23:32;;;;;;;;;;;25.30;46.60;;;;;;1600870;73;1928;-69
2022/08/31 19:25:35;;;;;;;;;;;25.40;46.70;;;;;;1598520;73;1143;-70
2022/08/31 19:27:38;;;;;;;;;;;25.40;46.60;;;;;;1569354;74;1139;-70
2022/08/31 19:29:40;;;;;;;;;;;25.40;46.60;;;;;;1600742;73;779;-69
2022/08/31 19:31:43;;;;;;;;;;;25.40;46.50;;;;;;1607137;73;711;-69
2022/08/31 19:33:45;;;;;;;;;;;25.40;46.60;;;;;;1613039;73;809;-69
2022/08/31 19:35:47;;;;;;;;;;;25.30;46.50;;;;;;1603299;73;1169;-70
2022/08/31 19:37:50;;;;;;;;;;;25.40;46.50;;;;;;1599081;73;800;-70
2022/08/31 19:39:52;;;;;;;;;;;25.30;46.50;;;;;;1609496;73;746;-70
2022/08/31 19:41:55;;;;;;;;;;;25.40;46.50;;;;;;1601122;72;742;-69
2022/08/31 19:43:59;;;;;;;;;;;25.30;46.50;;;;;;1597828;73;1946;-69
2022/08/31 19:46:03;;;;;;;;;;;25.30;46.50;;;;;;1610397;71;1171;-69
2022/08/31 19:48:05;;;;;;;;;;;25.30;46.50;;;;;;1605605;73;1851;-70
2022/08/31 19:50:08;;;;;;;;;;;25.30;46.50;;;;;;1591985;73;779;-69
2022/08/31 19:52:10;;;;;;;;;;;25.40;46.50;;;;;;1601589;73;808;-69
2022/08/31 19:54:12;;;;;;;;;;;25.30;46.50;;;;;;1604664;73;687;-69
2022/08/31 19:56:16;;;;;;;;;;;25.30;46.40;;;;;;1601457;73;1095;-68
2022/08/31 19:58:18;;;;;;;;;;;25.30;46.50;;;;;;1602009;73;696;-71
2022/08/31 20:00:20;;;;;;;;;;;25.30;46.50;;;;;;1621758;73;747;-68
2022/08/31 20:02:22;;;;;;;;;;;25.30;46.40;;;;;;1612018;73;676;-68
2022/08/31 20:04:27;;;;;;;;;;;25.30;46.40;;;;;;1605196;73;1933;-68
2022/08/31 20:06:30;;;;;;;;;;;25.30;46.30;;;;;;1597558;73;1087;-68
2022/08/31 20:08:32;;;;;;;;;;;25.30;46.30;;;;;;1609198;73;691;-68
2022/08/31 20:10:34;;;;;;;;;;;25.40;46.40;;;;;;1604330;73;659;-68
2022/08/31 20:12:38;;;;;;;;;;;25.30;46.30;;;;;;1601282;73;762;-69
2022/08/31 20:14:39;;;;;;;;;;;25.40;46.30;;;;;;1606202;73;1139;-68
2022/08/31 20:16:41;;;;;;;;;;;25.40;46.30;;;;;;1615836;73;695;-68
2022/08/31 20:18:47;;;;;;;;;;;25.30;46.30;;;;;;1599672;73;664;-72
2022/08/31 20:20:49;;;;;;;;;;;25.40;46.30;;;;;;1595265;73;1624;-67
2022/08/31 20:22:52;;;;;;;;;;;25.40;46.30;;;;;;1608820;73;1472;-67
2022/08/31 20:24:57;;;;;;;;;;;25.40;46.30;;;;;;1617776;72;1923;-66
2022/08/31 20:27:00;;;;;;;;;;;25.40;46.30;;;;;;1593608;73;1700;-66
2022/08/31 20:29:05;;;;;;;;;;;25.50;46.30;;;;;;1590574;73;2383;-67
2022/08/31 20:31:06;;;;;;;;;;;25.60;46.20;;;;;;1596185;73;1519;-68
2022/08/31 20:33:09;;;;;;;;;;;25.60;46.30;;;;;;1595833;73;719;-68
2022/08/31 20:35:12;;;;;;;;;;;25.60;46.20;;;;;;1590776;73;1169;-67
2022/08/31 20:37:14;;;;;;;;;;;25.70;46.00;;;;;;1594381;73;701;-68
2022/08/31 20:39:16;;;;;;;;;;;25.80;45.90;;;;;;1599318;73;815;-68
2022/08/31 20:41:18;;;;;;;;;;;25.80;45.80;;;;;;1597586;73;759;-67
2022/08/31 20:43:20;;;;;;;;;;;25.80;45.90;;;;;;1590437;73;729;-68
2022/08/31 20:45:22;;;;;;;;;;;25.90;45.90;;;;;;1588471;73;1918;-68
2022/08/31 20:49:45;;;;;;;;;;;25.90;45.70;;;;;;1592599;73;1646;-67
2022/08/31 20:51:47;;;;;;;;;;;25.90;45.70;;;;;;1594742;73;1025;-68
2022/08/31 20:53:49;;;;;;;;;;;25.90;45.80;;;;;;1592965;73;718;-66
2022/08/31 20:55:51;;;;;;;;;;;25.80;45.90;;;;;;1591194;73;1111;-67
2022/08/31 20:57:53;;;;;;;;;;;25.90;45.70;;;;;;1586782;73;744;-67
2022/08/31 20:59:55;;;;;;;;;;;25.90;45.80;;;;;;1593668;73;706;-67
2022/08/31 21:02:02;;;;;;;;;;;25.80;45.90;;;;;;1585889;73;744;-67
2022/08/31 21:04:04;;;;;;;;;;;25.70;46.10;;;;;;1591210;73;1582;-67
2022/08/31 21:06:10;;;;;;;;;;;25.70;46.00;;;;;;1594665;73;1173;-67
2022/08/31 21:08:15;;;;;;;;;;;25.70;46.20;;;;;;1587188;73;717;-67
2022/08/31 21:10:16;;;;;;;;;;;25.70;46.20;;;;;;1601164;73;1681;-67
2022/08/31 21:12:21;;;;;;;;;;;25.70;46.20;;;;;;1603708;73;758;-67
2022/08/31 21:14:21;;;;;;;;;;;25.70;46.30;;;;;;1595391;73;754;-66
2022/08/31 21:16:24;;;;;;;;;;;25.60;46.30;;;;;;1590085;73;1101;-67
2022/08/31 21:18:26;;;;;;;;;;;25.70;46.30;;;;;;1589465;73;745;-66
2022/08/31 21:20:28;;;;;;;;;;;25.70;46.30;;;;;;1596778;73;652;-67
2022/08/31 21:22:30;;;;;;;;;;;25.70;46.30;;;;;;1593727;73;747;-67
2022/08/31 21:24:36;;;;;;;;;;;25.70;46.40;;;;;;1586306;73;1945;-67
2022/08/31 21:26:41;;;;;;;;;;;25.70;46.40;;;;;;1588356;73;715;-67
2022/08/31 21:28:46;;;;;;;;;;;25.70;46.30;;;;;;1598265;73;729;-67
2022/08/31 21:30:48;;;;;;;;;;;25.70;46.30;;;;;;1600175;73;1672;-66
2022/08/31 21:32:50;;;;;;;;;;;25.70;46.30;;;;;;1589210;73;661;-66
2022/08/31 21:34:58;;;;;;;;;;;25.60;46.30;;;;;;1587047;73;1152;-67
2022/08/31 21:37:00;;;;;;;;;;;25.70;46.40;;;;;;1599926;73;781;-67
2022/08/31 21:39:01;;;;;;;;;;;25.60;46.30;;;;;;1601880;73;667;-67
2022/08/31 21:41:04;;;;;;;;;;;25.70;46.30;;;;;;1584079;73;1378;-67
2022/08/31 21:43:06;;;;;;;;;;;25.70;46.30;;;;;;1606956;73;633;-67
2022/08/31 21:45:09;;;;;;;;;;;25.70;46.30;;;;;;1595805;73;1938;-67
2022/08/31 21:47:13;;;;;;;;;;;25.70;46.30;;;;;;1607129;73;670;-67
2022/08/31 21:49:15;;;;;;;;;;;25.70;46.30;;;;;;1596762;73;1484;-66
2022/08/31 21:51:17;;;;;;;;;;;25.70;46.20;;;;;;1594477;73;682;-66
2022/08/31 21:53:19;;;;;;;;;;;25.80;46.20;;;;;;1601727;73;746;-66
2022/08/31 21:55:21;;;;;;;;;;;25.70;46.30;;;;;;1587866;73;1080;-66
2022/08/31 21:57:24;;;;;;;;;;;25.70;46.30;;;;;;1589096;73;706;-66
2022/08/31 21:59:27;;;;;;;;;;;25.70;46.30;;;;;;1593563;73;746;-66
2022/08/31 22:01:31;;;;;;;;;;;25.70;46.30;;;;;;1590143;73;764;-66
2022/08/31 22:03:39;;;;;;;;;;;25.70;46.30;;;;;;1593624;73;723;-65
2022/08/31 22:05:43;;;;;;;;;;;25.70;46.30;;;;;;1596892;73;1903;-65
2022/08/31 22:07:45;;;;;;;;;;;25.70;46.40;;;;;;1591999;73;1088;-64
2022/08/31 22:09:47;;;;;;;;;;;25.70;46.30;;;;;;1588528;73;757;-64
2022/08/31 22:11:51;;;;;;;;;;;25.70;46.30;;;;;;1602234;73;767;-64
2022/08/31 22:13:53;;;;;;;;;;;25.70;46.30;;;;;;1586151;73;797;-64
2022/08/31 22:15:55;;;;;;;;;;;25.80;46.30;;;;;;1599774;73;1196;-67
2022/08/31 22:17:58;;;;;;;;;;;25.70;46.30;;;;;;1589935;73;720;-69
2022/08/31 22:20:00;;;;;;;;;;;25.80;46.30;;;;;;1592399;73;730;-68
2022/08/31 22:22:02;;;;;;;;;;;25.70;46.40;;;;;;1596674;73;734;-69
2022/08/31 22:24:05;;;;;;;;;;;25.70;46.30;;;;;;1599263;73;722;-69
2022/08/31 22:26:07;;;;;;;;;;;25.70;46.30;;;;;;1588138;71;3101;-62
2022/08/31 22:28:10;;;;;;;;;;;25.70;46.30;;;;;;1554114;76;718;-62
2022/08/31 22:30:12;;;;;;;;;;;25.70;46.40;;;;;;1549126;75;674;-62
2022/08/31 22:32:14;;;;;;;;;;;25.80;46.40;;;;;;1557642;74;730;-62
2022/08/31 22:34:17;;;;;;;;;;;25.80;46.40;;;;;;1555965;74;922;-62
2022/08/31 22:36:23;;;;;;;;;;;25.80;46.40;;;;;;1545552;74;1207;-62
2022/08/31 22:38:25;;;;;;;;;;;25.70;46.40;;;;;;1539893;76;789;-64
2022/08/31 22:40:28;;;;;;;;;;;25.70;46.40;;;;;;1542192;76;763;-64
2022/08/31 22:42:30;;;;;;;;;;;25.80;46.30;;;;;;1538007;75;671;-63
2022/08/31 22:44:34;;;;;;;;;;;25.80;46.30;;;;;;1544522;76;678;-63
2022/08/31 22:46:36;;;;;;;;;;;25.80;46.30;;;;;;1541051;76;1893;-63
2022/08/31 22:48:38;;;;;;;;;;;25.90;46.30;;;;;;1541811;76;704;-63
2022/08/31 22:50:39;;;;;;;;;;;25.80;46.30;;;;;;1542765;76;678;-64
2022/08/31 22:52:41;;;;;;;;;;;25.80;46.40;;;;;;1540400;76;699;-63
2022/08/31 22:54:43;;;;;;;;;;;25.70;46.40;;;;;;1537434;76;694;-63
2022/08/31 22:56:45;;;;;;;;;;;25.70;46.30;;;;;;1538879;76;1224;-63
2022/08/31 22:58:48;;;;;;;;;;;25.70;46.30;;;;;;1542901;76;752;-63
2022/08/31 23:00:50;;;;;;;;;;;25.70;46.40;;;;;;1538944;76;697;-63
2022/08/31 23:02:53;;;;;;;;;;;25.70;46.40;;;;;;1541794;76;713;-62
2022/08/31 23:04:56;;;;;;;;;;;25.80;46.50;;;;;;1539807;76;1920;-63
2022/08/31 23:07:00;;;;;;;;;;;25.80;46.50;;;;;;1504917;77;1090;-63
2022/08/31 23:09:01;;;;;;;;;;;25.80;46.40;;;;;;1542831;76;772;-63
2022/08/31 23:11:04;;;;;;;;;;;25.70;46.40;;;;;;1538395;76;800;-63
2022/08/31 23:13:05;;;;;;;;;;;25.70;46.40;;;;;;1542559;76;777;-62
2022/08/31 23:15:11;;;;;;;;;;;25.70;46.40;;;;;;1542465;76;732;-63
2022/08/31 23:17:12;;;;;;;;;;;25.70;46.50;;;;;;1535879;76;1437;-63
2022/08/31 23:19:15;;;;;;;;;;;25.70;46.50;;;;;;1540134;76;731;-63
2022/08/31 23:21:17;;;;;;;;;;;25.70;46.50;;;;;;1543444;76;728;-64
2022/08/31 23:23:20;;;;;;;;;;;25.70;46.50;;;;;;1541521;76;714;-63
2022/08/31 23:25:23;;;;;;;;;;;25.70;46.50;;;;;;1540436;76;1929;-63
2022/08/31 23:27:25;;;;;;;;;;;25.70;46.50;;;;;;1541266;76;1166;-63
2022/08/31 23:29:30;;;;;;;;;;;25.70;46.50;;;;;;1541204;76;758;-63
2022/08/31 23:31:32;;;;;;;;;;;25.70;46.50;;;;;;1540970;76;724;-63
2022/08/31 23:33:34;;;;;;;;;;;25.70;46.50;;;;;;1543453;76;674;-63
2022/08/31 23:35:36;;;;;;;;;;;25.70;46.50;;;;;;1540180;76;1165;-63
2022/08/31 23:37:39;;;;;;;;;;;25.70;46.50;;;;;;1543084;76;684;-63
2022/08/31 23:39:45;;;;;;;;;;;25.70;46.40;;;;;;1541957;76;720;-63
2022/08/31 23:41:45;;;;;;;;;;;25.60;46.50;;;;;;1540553;76;1270;-63
2022/08/31 23:43:51;;;;;;;;;;;25.70;46.50;;;;;;1540533;76;783;-63
2022/08/31 23:45:52;;;;;;;;;;;25.60;46.50;;;;;;1534550;76;1907;-63
2022/08/31 23:47:56;;;;;;;;;;;25.70;46.50;;;;;;1542476;76;692;-63
2022/08/31 23:49:58;;;;;;;;;;;25.70;46.50;;;;;;1538493;76;1685;-63
2022/08/31 23:52:00;;;;;;;;;;;25.70;46.50;;;;;;1537804;76;1517;-64
2022/08/31 23:54:05;;;;;;;;;;;25.60;46.50;;;;;;1541650;76;749;-64
2022/08/31 23:56:11;;;;;;;;;;;25.70;46.60;;;;;;1542451;76;1693;-64
2022/08/31 23:58:12;;;;;;;;;;;25.70;46.60;;;;;;1538902;76;1440;-64
